Time;durP1;ratioP1;P1;durP2;ratioP2;P2;SDS_P1;SDS_P2;PMS_P1;PMS_P2;Temp;Humidity;BMP_temperature;BMP_pressure;BME280_temperature;BME280_humidity;BME280_pressure;Samples;Min_cycle;Max_cycle;Signal;HPM_P1;HPM_P2
2023/12/01 00:00:50;;;;;;;10.47;8.70;;;7.30;79.20;5.70;94682.00;;;;5055028;28;20279;-85
2023/12/01 00:03:17;;;;;;;9.27;8.23;;;7.30;79.10;5.70;94673.00;;;;5063772;28;20242;-85
2023/12/01 00:05:44;;;;;;;9.30;8.30;;;7.30;79.10;5.70;94677.00;;;;5053524;28;20318;-85
2023/12/01 00:08:11;;;;;;;9.20;8.20;;;7.30;79.10;5.70;94675.00;;;;5050497;28;20201;-83
2023/12/01 00:10:40;;;;;;;10.77;8.50;;;7.30;79.10;5.70;94667.00;;;;5057316;28;20390;-84
2023/12/01 00:13:07;;;;;;;10.63;9.53;;;7.30;79.10;5.70;94661.00;;;;5044729;28;20196;-85
2023/12/01 00:15:34;;;;;;;9.43;8.27;;;7.30;79.20;5.70;94658.00;;;;5062542;28;20451;-85
2023/12/01 00:18:01;;;;;;;9.83;8.80;;;7.30;79.20;5.70;94659.00;;;;5061113;28;20287;-85
2023/12/01 00:20:28;;;;;;;12.47;9.73;;;7.30;79.10;5.70;94661.00;;;;5064321;28;20196;-85
2023/12/01 00:22:55;;;;;;;9.60;8.03;;;7.30;79.10;5.70;94658.00;;;;5059802;28;20262;-85
2023/12/01 00:25:22;;;;;;;9.70;8.67;;;7.30;79.10;5.70;94675.00;;;;5064261;28;20266;-87
2023/12/01 00:27:51;;;;;;;10.60;8.57;;;7.30;79.10;5.70;94680.00;;;;5063333;28;20251;-87
2023/12/01 00:30:18;;;;;;;9.53;8.33;;;7.30;79.20;5.60;94673.00;;;;5064747;28;20644;-86
2023/12/01 00:32:46;;;;;;;9.73;8.60;;;7.30;79.20;5.70;94680.00;;;;5056325;28;20562;-86
2023/12/01 00:35:13;;;;;;;11.57;9.60;;;7.30;79.90;5.70;94674.00;;;;5042627;28;20227;-86
2023/12/01 00:37:40;;;;;;;9.77;8.77;;;7.30;79.20;5.70;94667.00;;;;5061727;28;20287;-86
2023/12/01 00:40:10;;;;;;;9.00;8.10;;;7.30;79.30;5.70;94668.00;;;;5068480;28;20737;-87
2023/12/01 00:42:37;;;;;;;9.20;8.27;;;7.30;79.20;5.70;94669.00;;;;5063819;28;20201;-86
2023/12/01 00:45:06;;;;;;;9.33;8.43;;;7.30;79.20;5.70;94664.00;;;;5059073;28;20712;-86
2023/12/01 00:47:33;;;;;;;9.87;8.87;;;7.30;79.20;5.70;94665.00;;;;5066179;28;20223;-87
2023/12/01 00:50:00;;;;;;;9.30;8.30;;;7.30;79.20;5.70;94665.00;;;;5066790;28;20297;-86
2023/12/01 00:52:27;;;;;;;9.63;8.63;;;7.30;79.20;5.70;94648.00;;;;5066118;28;20224;-86
2023/12/01 00:54:55;;;;;;;10.03;8.90;;;7.30;79.20;5.70;94645.00;;;;5063094;28;20216;-87
2023/12/01 00:57:23;;;;;;;9.73;8.17;;;7.30;79.20;5.70;94646.00;;;;5065153;28;20204;-86
2023/12/01 00:59:50;;;;;;;9.57;8.57;;;7.30;79.30;5.70;94646.00;;;;5064590;28;20201;-86
2023/12/01 01:02:18;;;;;;;8.47;7.60;;;8.00;79.70;5.70;94653.00;;;;5061734;28;20671;-87
2023/12/01 01:04:45;;;;;;;8.20;7.40;;;7.30;79.30;5.70;94648.00;;;;5051968;28;20244;-87
2023/12/01 01:07:13;;;;;;;8.83;7.93;;;7.30;79.40;5.80;94653.00;;;;5057044;28;20210;-87
2023/12/01 01:09:40;;;;;;;9.20;8.30;;;7.30;79.40;5.80;94643.00;;;;5063268;28;20734;-86
2023/12/01 01:12:07;;;;;;;8.57;7.77;;;7.30;79.40;5.80;94647.00;;;;5063781;28;20702;-86
2023/12/01 01:14:35;;;;;;;9.00;8.10;;;7.30;79.50;5.80;94650.00;;;;5063407;28;20313;-86
2023/12/01 01:17:02;;;;;;;8.20;7.40;;;7.40;79.40;5.80;94644.00;;;;5058031;28;20196;-86
2023/12/01 01:19:30;;;;;;;8.30;7.50;;;7.40;79.30;5.80;94643.00;;;;5062435;28;20576;-86
2023/12/01 01:21:57;;;;;;;8.63;7.80;;;7.40;79.30;5.80;94652.00;;;;5066489;28;20746;-87
2023/12/01 01:24:24;;;;;;;8.57;7.73;;;7.40;79.30;5.80;94652.00;;;;5064806;28;20259;-87
2023/12/01 01:26:51;;;;;;;8.50;7.70;;;7.40;79.30;5.90;94652.00;;;;5062597;28;20649;-86
2023/12/01 01:29:18;;;;;;;8.40;7.60;;;7.40;79.30;5.90;94655.00;;;;5061231;28;20659;-86
2023/12/01 01:31:46;;;;;;;7.57;6.87;;;7.40;79.20;5.90;94662.00;;;;5053506;28;20201;-86
2023/12/01 01:34:13;;;;;;;8.03;7.23;;;7.50;79.30;5.90;94659.00;;;;5062322;28;20242;-86
2023/12/01 01:36:44;;;;;;;7.87;7.17;;;7.50;79.30;5.90;94655.00;;;;5062766;28;20688;-86
2023/12/01 01:39:11;;;;;;;7.93;7.17;;;7.50;79.30;5.90;94656.00;;;;5060650;28;20207;-86
2023/12/01 01:41:38;;;;;;;7.57;6.87;;;7.50;79.40;5.90;94652.00;;;;5061188;28;20651;-85
2023/12/01 01:44:05;;;;;;;8.27;7.40;;;7.50;79.30;5.90;94649.00;;;;5056283;28;20220;-86
2023/12/01 01:46:32;;;;;;;7.40;6.73;;;7.50;79.30;5.90;94640.00;;;;5063122;28;20196;-85
2023/12/01 01:48:59;;;;;;;8.00;7.20;;;7.50;79.30;5.90;94650.00;;;;5066477;28;20290;-86
2023/12/01 01:51:27;;;;;;;8.07;7.27;;;7.50;79.30;5.90;94649.00;;;;5062820;28;20230;-86
2023/12/01 01:53:56;;;;;;;7.87;7.10;;;7.50;79.30;5.90;94654.00;;;;5066236;28;20323;-85
2023/12/01 01:56:27;;;;;;;7.93;7.20;;;7.50;79.30;5.90;94650.00;;;;5055463;28;20294;-85
2023/12/01 01:58:54;;;;;;;8.57;7.77;;;7.50;79.40;5.80;94640.00;;;;5058900;28;20235;-86
2023/12/01 02:01:22;;;;;;;9.30;8.30;;;7.50;79.30;5.90;94649.00;;;;5052423;28;20211;-85
2023/12/01 02:03:49;;;;;;;8.30;7.50;;;7.40;79.30;5.90;94639.00;;;;5059179;28;20580;-86
2023/12/01 02:06:16;;;;;;;8.20;7.37;;;7.50;79.20;5.80;94639.00;;;;5063807;28;20246;-86
2023/12/01 02:08:44;;;;;;;8.00;7.27;;;7.40;79.20;5.80;94642.00;;;;5052220;28;20402;-86
2023/12/01 02:11:13;;;;;;;7.83;7.03;;;7.40;79.20;5.80;94637.00;;;;5059241;28;20204;-85
2023/12/01 02:13:41;;;;;;;8.87;7.97;;;7.40;79.20;5.80;94645.00;;;;5062487;28;20232;-86
2023/12/01 02:16:10;;;;;;;8.30;7.40;;;7.50;79.40;5.80;94648.00;;;;5062968;28;20196;-85
2023/12/01 02:18:37;;;;;;;8.37;7.57;;;7.40;79.40;5.80;94642.00;;;;5063156;28;20298;-86
2023/12/01 02:21:04;;;;;;;8.57;7.67;;;7.40;79.40;5.80;94640.00;;;;5062799;28;20196;-86
2023/12/01 02:23:33;;;;;;;7.97;7.23;;;7.40;79.40;5.80;94648.00;;;;5061876;28;20279;-86
2023/12/01 02:26:00;;;;;;;8.47;7.67;;;7.40;79.40;5.80;94643.00;;;;5064515;28;20282;-86
2023/12/01 02:28:27;;;;;;;7.53;6.83;;;7.40;79.40;5.80;94647.00;;;;5065592;28;20303;-85
2023/12/01 02:30:56;;;;;;;7.50;6.87;;;8.00;79.80;5.80;94644.00;;;;5055923;28;20295;-86
2023/12/01 02:33:24;;;;;;;7.77;7.07;;;8.00;79.80;5.80;94640.00;;;;5062703;28;20310;-86
2023/12/01 02:35:54;;;;;;;7.50;6.80;;;7.30;79.40;5.80;94649.00;;;;5064083;28;20224;-85
2023/12/01 02:38:21;;;;;;;7.60;6.90;;;7.40;79.40;5.80;94655.00;;;;5065902;28;20207;-85
2023/12/01 02:40:50;;;;;;;7.57;6.93;;;7.40;79.40;5.80;94649.00;;;;5062409;28;20196;-85
2023/12/01 02:43:19;;;;;;;7.77;6.97;;;7.40;79.30;5.80;94645.00;;;;5062042;28;20199;-85
2023/12/01 02:45:46;;;;;;;7.53;6.73;;;7.40;79.40;5.80;94664.00;;;;5062309;28;20287;-84
2023/12/01 02:48:14;;;;;;;7.43;6.73;;;7.40;79.50;5.80;94669.00;;;;5064628;28;20303;-85
2023/12/01 02:50:41;;;;;;;8.00;7.20;;;8.10;79.90;5.80;94673.00;;;;5061249;28;20203;-85
2023/12/01 02:53:09;;;;;;;7.63;6.90;;;7.50;79.60;5.80;94664.00;;;;5063139;28;20664;-84
2023/12/01 02:55:36;;;;;;;8.53;7.67;;;7.40;79.50;5.80;94673.00;;;;5055435;28;20761;-85
2023/12/01 02:58:05;;;;;;;8.00;7.20;;;7.50;79.50;5.80;94679.00;;;;5059408;28;20234;-85
2023/12/01 03:00:32;;;;;;;7.40;6.70;;;7.50;79.40;5.80;94680.00;;;;5055385;28;20711;-85
2023/12/01 03:02:59;;;;;;;8.33;7.53;;;7.50;79.50;5.80;94681.00;;;;5057799;28;20294;-86
2023/12/01 03:05:26;;;;;;;7.80;7.03;;;7.40;79.40;5.80;94671.00;;;;5058752;28;20223;-85
2023/12/01 03:07:53;;;;;;;7.87;7.17;;;7.50;80.10;5.80;94655.00;;;;5064111;28;20285;-86
2023/12/01 03:10:20;;;;;;;7.93;7.13;;;7.50;79.40;5.80;94676.00;;;;5066019;28;20238;-86
2023/12/01 03:12:47;;;;;;;7.77;7.07;;;7.50;79.30;5.80;94671.00;;;;5056728;28;20213;-85
2023/12/01 03:15:19;;;;;;;8.10;7.20;;;7.60;79.40;5.90;94658.00;;;;5061734;28;20319;-86
2023/12/01 03:17:47;;;;;;;7.47;6.77;;;7.50;79.40;5.80;94661.00;;;;5055793;28;20196;-86
2023/12/01 03:20:16;;;;;;;7.93;7.13;;;7.50;79.40;5.80;94664.00;;;;5065632;28;20196;-86
2023/12/01 03:22:47;;;;;;;8.27;7.43;;;7.50;79.40;5.80;94659.00;;;;5058044;28;20661;-85
2023/12/01 03:25:14;;;;;;;8.53;7.63;;;7.50;79.40;5.80;94649.00;;;;5062581;28;20307;-86
2023/12/01 03:27:43;;;;;;;7.53;6.83;;;7.50;79.40;5.80;94651.00;;;;5040245;28;20188;-85
2023/12/01 03:30:14;;;;;;;7.60;6.90;;;7.50;79.40;5.80;94649.00;;;;5065437;28;20303;-85
2023/12/01 03:32:48;;;;;;;8.50;7.70;;;7.50;79.40;5.80;94650.00;;;;5057461;28;20204;-84
2023/12/01 03:35:20;;;;;;;8.10;7.30;;;7.50;79.30;5.80;94660.00;;;;5057994;28;20229;-84
2023/12/01 03:37:48;;;;;;;8.47;7.57;;;7.50;79.40;5.80;94659.00;;;;5053610;28;20280;-85
2023/12/01 03:40:15;;;;;;;8.13;7.33;;;7.50;79.40;5.80;94670.00;;;;5065797;28;20202;-86
2023/12/01 03:42:45;;;;;;;8.43;7.53;;;7.50;79.30;5.80;94657.00;;;;5061482;28;20283;-85
2023/12/01 03:45:13;;;;;;;9.37;8.47;;;7.50;79.30;5.80;94656.00;;;;5057109;28;20311;-86
2023/12/01 03:47:41;;;;;;;10.50;8.57;;;7.50;79.40;5.90;94663.00;;;;5061144;28;20231;-86
2023/12/01 03:50:12;;;;;;;9.33;8.40;;;7.50;79.40;5.90;94662.00;;;;5057739;28;20224;-86
2023/12/01 03:52:44;;;;;;;9.93;8.93;;;7.50;79.50;5.90;94662.00;;;;5051716;28;20207;-85
2023/12/01 03:55:13;;;;;;;9.73;8.53;;;7.50;79.40;5.90;94657.00;;;;5053478;28;20231;-86
2023/12/01 03:57:42;;;;;;;9.43;8.43;;;7.50;79.40;5.90;94657.00;;;;5058710;28;20684;-86
2023/12/01 04:00:13;;;;;;;9.53;8.53;;;7.50;79.60;5.90;94651.00;;;;5055737;28;20200;-85
2023/12/01 04:02:41;;;;;;;8.53;7.53;;;7.50;79.50;5.90;94659.00;;;;5061515;28;21190;-86
2023/12/01 04:05:17;;;;;;;8.40;7.53;;;7.50;79.50;5.90;94662.00;;;;5063978;28;20222;-86
2023/12/01 04:07:46;;;;;;;8.23;7.43;;;7.50;79.40;5.90;94647.00;;;;5058694;28;20287;-86
2023/12/01 04:10:13;;;;;;;8.20;7.23;;;7.50;79.40;5.90;94648.00;;;;5063866;28;20196;-86
2023/12/01 04:12:44;;;;;;;8.30;7.50;;;7.60;79.50;5.90;94661.00;;;;5064344;28;20204;-85
2023/12/01 04:15:14;;;;;;;8.03;7.23;;;7.50;79.40;5.90;94668.00;;;;5055645;28;20682;-86
2023/12/01 04:17:43;;;;;;;9.50;8.50;;;7.50;79.50;5.90;94662.00;;;;5064018;28;20224;-85
2023/12/01 04:20:25;;;;;;;8.97;8.07;;;7.80;79.70;5.90;94666.00;;;;5067804;28;20612;-86
2023/12/01 04:22:54;;;;;;;8.33;7.47;;;7.50;79.30;5.90;94664.00;;;;5060054;28;20200;-85
2023/12/01 04:25:22;;;;;;;9.47;8.47;;;7.50;79.40;5.90;94666.00;;;;5066184;28;20224;-84
2023/12/01 04:27:51;;;;;;;9.47;8.47;;;7.50;79.50;5.90;94665.00;;;;5066653;28;20254;-85
2023/12/01 04:30:20;;;;;;;8.87;7.97;;;7.50;79.50;5.90;94662.00;;;;5067675;28;20208;-86
2023/12/01 04:32:52;;;;;;;9.07;8.13;;;7.50;79.40;5.90;94672.00;;;;5060122;28;20203;-85
2023/12/01 04:35:23;;;;;;;10.60;9.13;;;7.50;79.50;5.90;94668.00;;;;5067708;28;20235;-85
2023/12/01 04:37:50;;;;;;;8.93;8.03;;;7.50;79.60;5.90;94674.00;;;;5061079;28;20238;-85
2023/12/01 04:40:18;;;;;;;10.13;8.13;;;7.50;79.50;5.90;94668.00;;;;5066999;28;20621;-85
2023/12/01 04:42:45;;;;;;;9.13;8.23;;;7.50;79.50;5.90;94666.00;;;;5064516;28;20722;-85
2023/12/01 04:45:14;;;;;;;9.27;8.37;;;7.50;79.50;5.90;94665.00;;;;5058589;28;20620;-85
2023/12/01 04:47:42;;;;;;;11.17;8.13;;;7.50;79.50;5.90;94676.00;;;;5061403;28;20300;-85
2023/12/01 04:50:15;;;;;;;8.57;7.20;;;7.50;79.50;5.90;94668.00;;;;5053453;28;20228;-86
2023/12/01 04:52:46;;;;;;;9.17;8.20;;;7.50;79.50;5.80;94660.00;;;;5059405;28;20670;-86
2023/12/01 04:55:16;;;;;;;8.70;7.80;;;7.50;79.50;5.90;94663.00;;;;5063502;28;20219;-86
2023/12/01 04:57:44;;;;;;;8.03;7.23;;;7.50;79.50;5.80;94658.00;;;;5064552;28;20197;-86
2023/12/01 05:00:20;;;;;;;8.13;7.27;;;7.50;79.60;5.80;94649.00;;;;5066643;28;20279;-84
2023/12/01 05:02:49;;;;;;;8.33;7.53;;;7.50;79.50;5.80;94651.00;;;;5059335;28;20210;-86
2023/12/01 05:05:18;;;;;;;9.07;7.63;;;7.50;79.50;5.80;94654.00;;;;5064009;28;20246;-86
2023/12/01 05:07:49;;;;;;;9.13;8.23;;;7.50;79.40;5.80;94655.00;;;;5060888;28;20193;-86
2023/12/01 05:10:17;;;;;;;9.93;8.43;;;7.50;79.40;5.80;94664.00;;;;5067521;28;20212;-86
2023/12/01 05:12:49;;;;;;;9.10;8.13;;;7.50;79.50;5.80;94672.00;;;;5064007;28;20671;-84
2023/12/01 05:15:17;;;;;;;9.03;8.13;;;7.50;79.50;5.80;94691.00;;;;5064171;28;20224;-86
2023/12/01 05:17:46;;;;;;;9.30;8.30;;;7.40;79.40;5.80;94697.00;;;;5065824;28;20216;-86
2023/12/01 05:20:16;;;;;;;8.53;7.63;;;7.50;79.60;5.80;94697.00;;;;5063216;28;20202;-86
2023/12/01 05:22:49;;;;;;;9.50;7.77;;;7.50;79.70;5.80;94699.00;;;;5064532;28;20638;-86
2023/12/01 05:25:17;;;;;;;8.63;7.73;;;7.50;79.50;5.80;94703.00;;;;5064352;28;20230;-85
2023/12/01 05:27:47;;;;;;;9.13;8.03;;;7.50;79.60;5.80;94702.00;;;;5066141;28;20279;-85
2023/12/01 05:30:17;;;;;;;8.97;8.00;;;7.50;79.60;5.80;94707.00;;;;5067301;28;20210;-85
2023/12/01 05:32:46;;;;;;;8.70;7.83;;;7.40;79.50;5.80;94702.00;;;;5066514;28;20228;-86
2023/12/01 05:35:15;;;;;;;8.30;7.50;;;7.50;79.60;5.80;94702.00;;;;5065603;28;20258;-86
2023/12/01 05:37:47;;;;;;;8.77;7.90;;;7.40;79.50;5.80;94705.00;;;;5062109;28;20192;-85
2023/12/01 05:40:19;;;;;;;8.57;7.70;;;7.50;79.60;5.80;94701.00;;;;5065381;28;20231;-85
2023/12/01 05:42:46;;;;;;;8.60;7.63;;;7.40;79.50;5.80;94707.00;;;;5058931;28;20276;-85
2023/12/01 05:45:16;;;;;;;8.77;7.90;;;7.40;79.60;5.80;94700.00;;;;5054278;28;20654;-84
2023/12/01 05:47:45;;;;;;;8.90;7.90;;;7.40;79.60;5.80;94684.00;;;;5053055;28;20289;-85
2023/12/01 05:50:17;;;;;;;8.73;7.83;;;7.40;79.60;5.80;94700.00;;;;5065483;28;20227;-85
2023/12/01 05:52:46;;;;;;;9.87;8.87;;;7.40;79.50;5.80;94697.00;;;;5058585;28;20200;-85
2023/12/01 05:55:16;;;;;;;8.27;7.47;;;7.40;79.50;5.80;94704.00;;;;5061732;28;20226;-85
2023/12/01 05:57:45;;;;;;;10.70;8.50;;;7.40;79.60;5.80;94685.00;;;;5054216;28;20203;-85
2023/12/01 06:00:15;;;;;;;10.43;8.67;;;7.40;79.60;5.80;94690.00;;;;5060821;28;20291;-85
2023/12/01 06:02:43;;;;;;;8.80;7.67;;;7.40;79.60;5.80;94692.00;;;;5063327;28;20216;-85
2023/12/01 06:05:12;;;;;;;9.97;8.40;;;7.40;79.60;5.80;94708.00;;;;5064323;28;20222;-85
2023/12/01 06:07:43;;;;;;;9.60;8.17;;;7.40;79.60;5.80;94701.00;;;;5059880;28;20207;-84
2023/12/01 06:10:11;;;;;;;9.47;8.40;;;7.40;79.60;5.80;94697.00;;;;5066988;28;20669;-85
2023/12/01 06:12:40;;;;;;;9.77;8.57;;;7.40;79.60;5.80;94690.00;;;;5063781;28;20207;-85
2023/12/01 06:15:10;;;;;;;8.20;7.23;;;7.40;79.60;5.80;94699.00;;;;5067053;28;20220;-85
2023/12/01 06:17:37;;;;;;;9.07;7.60;;;7.40;79.60;5.80;94702.00;;;;5057929;28;20200;-85
2023/12/01 06:20:16;;;;;;;8.43;7.60;;;7.40;79.70;5.80;94706.00;;;;5067065;28;20200;-85
2023/12/01 06:22:47;;;;;;;10.80;8.47;;;7.40;79.60;5.80;94706.00;;;;5060000;28;20255;-85
2023/12/01 06:25:16;;;;;;;9.50;7.90;;;7.40;79.60;5.80;94712.00;;;;5066594;28;20413;-85
2023/12/01 06:27:45;;;;;;;8.57;7.67;;;7.40;79.40;5.80;94703.00;;;;5062352;28;20560;-86
2023/12/01 06:30:14;;;;;;;10.77;8.60;;;7.40;79.50;5.80;94684.00;;;;5068659;28;20256;-85
2023/12/01 06:32:41;;;;;;;8.73;7.83;;;7.40;79.50;5.80;94693.00;;;;5061544;28;20634;-85
2023/12/01 06:35:11;;;;;;;9.00;7.33;;;7.40;79.50;5.80;94691.00;;;;5064899;28;20234;-85
2023/12/01 06:37:39;;;;;;;8.90;7.97;;;7.40;79.50;5.80;94680.00;;;;5058268;28;20252;-85
2023/12/01 06:40:11;;;;;;;10.67;8.97;;;7.40;79.60;5.80;94690.00;;;;5059733;28;20645;-85
2023/12/01 06:42:42;;;;;;;10.20;8.20;;;7.40;80.40;5.80;94685.00;;;;5055780;28;20197;-85
2023/12/01 06:45:12;;;;;;;10.43;8.97;;;7.40;79.50;5.80;94692.00;;;;5055943;28;20220;-86
2023/12/01 06:47:41;;;;;;;10.47;9.17;;;7.40;79.60;5.80;94697.00;;;;5063557;28;20192;-86
2023/12/01 06:50:10;;;;;;;8.77;7.67;;;7.40;79.70;5.80;94690.00;;;;5052091;28;20193;-85
2023/12/01 06:52:38;;;;;;;9.03;7.30;;;7.50;79.60;5.80;94694.00;;;;5058724;28;20196;-83
2023/12/01 06:55:08;;;;;;;11.27;8.57;;;7.50;79.60;5.80;94689.00;;;;5062449;28;20212;-84
2023/12/01 06:57:38;;;;;;;9.57;8.10;;;7.50;79.60;5.80;94701.00;;;;5052860;28;20197;-85
2023/12/01 07:00:08;;;;;;;10.47;8.37;;;7.50;79.50;5.80;94700.00;;;;5059497;28;20211;-85
2023/12/01 07:02:38;;;;;;;9.13;7.90;;;7.50;79.50;5.90;94694.00;;;;5019825;28;20507;-84
2023/12/01 07:05:07;;;;;;;9.60;7.93;;;7.60;79.50;5.90;94703.00;;;;4994899;28;20228;-83
2023/12/01 07:07:37;;;;;;;10.80;7.97;;;7.50;79.40;6.00;94713.00;;;;4996300;28;20603;-84
2023/12/01 07:10:06;;;;;;;10.47;8.57;;;7.70;79.50;6.00;94718.00;;;;5041924;28;20477;-84
2023/12/01 07:12:34;;;;;;;9.90;8.27;;;7.60;79.30;6.00;94721.00;;;;5033127;28;20201;-84
2023/12/01 07:15:02;;;;;;;10.60;8.53;;;7.60;79.30;6.00;94716.00;;;;5066491;28;20228;-84
2023/12/01 07:17:30;;;;;;;9.27;8.03;;;7.70;79.30;6.00;94733.00;;;;5065461;28;20223;-83
2023/12/01 07:19:59;;;;;;;9.23;8.23;;;7.70;79.20;6.00;94740.00;;;;5061110;28;20232;-83
2023/12/01 07:22:26;;;;;;;10.77;8.53;;;7.70;79.20;6.00;94731.00;;;;5062666;28;20225;-84
2023/12/01 07:24:54;;;;;;;9.33;8.40;;;7.70;79.20;6.00;94738.00;;;;5061241;28;20296;-84
2023/12/01 07:27:25;;;;;;;10.33;8.40;;;7.70;79.00;6.00;94746.00;;;;5062352;28;20204;-83
2023/12/01 07:29:52;;;;;;;9.67;8.67;;;7.70;79.20;6.10;94742.00;;;;5058198;28;20211;-84
2023/12/01 07:32:19;;;;;;;9.20;7.67;;;7.70;79.30;6.10;94748.00;;;;5060967;28;20224;-84
2023/12/01 07:34:47;;;;;;;8.67;7.73;;;7.70;79.30;6.10;94753.00;;;;5059271;28;20242;-85
2023/12/01 07:37:15;;;;;;;9.50;8.43;;;7.80;79.30;6.10;94743.00;;;;5058032;28;20263;-84
2023/12/01 07:39:42;;;;;;;11.30;8.80;;;7.80;79.20;6.10;94747.00;;;;5058939;28;20720;-85
2023/12/01 07:42:09;;;;;;;9.67;8.67;;;7.80;79.20;6.10;94749.00;;;;5058097;28;20279;-84
2023/12/01 07:44:36;;;;;;;9.23;8.27;;;7.80;79.10;6.20;94747.00;;;;5056735;28;20227;-84
2023/12/01 07:47:07;;;;;;;14.50;9.03;;;7.80;79.10;6.20;94746.00;;;;5066466;28;20226;-85
2023/12/01 07:49:34;;;;;;;9.10;8.10;;;7.80;78.90;6.20;94751.00;;;;5067027;28;20246;-85
2023/12/01 07:52:06;;;;;;;9.43;7.93;;;7.80;78.80;6.20;94759.00;;;;5059792;28;20682;-85
2023/12/01 07:54:35;;;;;;;12.93;9.07;;;7.80;78.90;6.20;94753.00;;;;5066981;28;20215;-84
2023/12/01 07:57:02;;;;;;;10.70;8.80;;;7.80;78.90;6.20;94758.00;;;;5067544;28;20228;-85
2023/12/01 07:59:30;;;;;;;10.67;8.97;;;7.80;78.90;6.20;94755.00;;;;5057302;28;20208;-84
2023/12/01 08:01:58;;;;;;;12.13;8.77;;;7.80;79.60;6.20;94749.00;;;;5061557;28;20242;-84
2023/12/01 08:04:27;;;;;;;9.80;8.63;;;7.80;78.70;6.20;94755.00;;;;5071793;28;20212;-84
2023/12/01 08:06:55;;;;;;;10.63;8.50;;;7.90;78.80;6.20;94756.00;;;;5057846;28;20686;-85
2023/12/01 08:09:23;;;;;;;10.63;8.93;;;7.90;79.60;6.20;94762.00;;;;5068528;28;20670;-84
2023/12/01 08:11:51;;;;;;;11.10;8.97;;;7.90;78.80;6.20;94755.00;;;;5061210;28;20192;-83
2023/12/01 08:14:18;;;;;;;11.43;8.50;;;7.90;78.70;6.30;94762.00;;;;5063551;28;20295;-85
2023/12/01 08:16:45;;;;;;;10.60;8.90;;;7.80;78.60;6.30;94769.00;;;;5060723;28;20481;-85
2023/12/01 08:19:12;;;;;;;11.13;9.00;;;7.90;78.70;6.30;94767.00;;;;5064011;28;20715;-84
2023/12/01 08:21:39;;;;;;;10.00;8.77;;;7.90;78.70;6.30;94773.00;;;;5061877;28;20192;-83
2023/12/01 08:24:07;;;;;;;10.97;9.33;;;7.90;78.80;6.30;94770.00;;;;5061648;28;20291;-84
2023/12/01 08:26:34;;;;;;;11.40;9.63;;;7.90;79.00;6.30;94761.00;;;;5058478;28;20643;-84
2023/12/01 08:29:03;;;;;;;12.43;9.63;;;7.90;79.00;6.30;94765.00;;;;5069304;28;20203;-85
2023/12/01 08:31:30;;;;;;;10.83;9.73;;;8.00;79.50;6.40;94778.00;;;;5060116;28;20211;-85
2023/12/01 08:33:57;;;;;;;10.93;9.07;;;8.00;78.80;6.40;94776.00;;;;5061757;28;20595;-85
2023/12/01 08:36:25;;;;;;;12.50;9.70;;;8.00;78.80;6.40;94789.00;;;;5064518;28;20292;-84
2023/12/01 08:38:53;;;;;;;13.77;10.43;;;8.00;78.90;6.40;94779.00;;;;5060440;28;20192;-85
2023/12/01 08:41:20;;;;;;;15.40;9.93;;;8.00;78.90;6.50;94772.00;;;;5062068;28;20315;-84
2023/12/01 08:43:47;;;;;;;11.47;9.73;;;8.20;79.00;6.50;94781.00;;;;5061802;28;20737;-84
2023/12/01 08:46:15;;;;;;;11.70;9.80;;;8.10;78.90;6.50;94771.00;;;;5064246;28;20265;-85
2023/12/01 08:48:43;;;;;;;11.53;9.87;;;8.10;78.70;6.50;94775.00;;;;5066938;28;20206;-85
2023/12/01 08:51:10;;;;;;;11.70;9.53;;;8.70;79.20;6.60;94772.00;;;;5064611;28;20192;-85
2023/12/01 08:53:37;;;;;;;11.70;9.50;;;8.20;78.80;6.60;94769.00;;;;5070647;28;20634;-85
2023/12/01 08:56:05;;;;;;;11.37;9.70;;;8.20;78.90;6.60;94780.00;;;;5062176;28;20295;-83
2023/12/01 08:58:32;;;;;;;13.20;10.13;;;8.20;78.90;6.60;94772.00;;;;5060170;28;20227;-85
2023/12/01 09:00:59;;;;;;;11.13;9.07;;;8.20;78.90;6.60;94776.00;;;;5064592;28;20188;-83
2023/12/01 09:03:28;;;;;;;10.30;8.70;;;8.30;79.10;6.60;94782.00;;;;5065743;28;20192;-85
2023/12/01 09:05:55;;;;;;;14.17;10.20;;;8.30;79.10;6.60;94783.00;;;;5064035;28;20206;-85
2023/12/01 09:08:22;;;;;;;11.77;9.60;;;8.30;79.10;6.70;94798.00;;;;5060120;28;20854;-85
2023/12/01 09:10:49;;;;;;;12.70;9.97;;;8.30;78.80;6.70;94801.00;;;;5063353;28;20215;-85
2023/12/01 09:13:16;;;;;;;10.90;9.40;;;8.40;78.90;6.70;94808.00;;;;5062521;28;20738;-85
2023/12/01 09:15:43;;;;;;;9.77;8.70;;;8.40;78.80;6.70;94821.00;;;;5060484;28;20765;-84
2023/12/01 09:18:10;;;;;;;11.03;9.37;;;8.40;78.70;6.70;94820.00;;;;5058977;28;20257;-85
2023/12/01 09:20:39;;;;;;;11.57;9.07;;;8.40;78.70;6.70;94825.00;;;;5062597;28;20227;-85
2023/12/01 09:23:08;;;;;;;13.40;9.90;;;8.90;78.90;6.70;94813.00;;;;5064560;28;20265;-83
2023/12/01 09:25:36;;;;;;;11.90;10.03;;;8.40;78.50;6.70;94816.00;;;;5052611;28;20212;-83
2023/12/01 09:28:03;;;;;;;14.13;10.03;;;8.40;78.50;6.80;94827.00;;;;5059970;28;20289;-83
2023/12/01 09:30:30;;;;;;;11.23;9.77;;;8.40;78.50;6.80;94823.00;;;;5061206;28;20286;-85
2023/12/01 09:32:57;;;;;;;10.87;9.07;;;8.40;78.40;6.80;94819.00;;;;5055223;28;20222;-83
2023/12/01 09:35:26;;;;;;;9.67;8.67;;;8.50;78.30;6.80;94791.00;;;;5050921;28;20224;-83
2023/12/01 09:37:54;;;;;;;12.17;10.03;;;8.50;78.30;6.80;94815.00;;;;5052846;28;20216;-85
2023/12/01 09:40:21;;;;;;;11.30;9.70;;;8.50;78.30;6.80;94800.00;;;;5059802;28;20228;-83
2023/12/01 09:42:50;;;;;;;11.47;9.83;;;8.50;78.40;6.70;94811.00;;;;5058180;28;20204;-84
2023/12/01 09:45:21;;;;;;;10.77;9.40;;;8.50;78.30;6.70;94813.00;;;;5064040;28;20217;-85
2023/12/01 09:47:53;;;;;;;11.37;9.33;;;8.50;78.30;6.70;94808.00;;;;5061014;28;20749;-85
2023/12/01 09:50:22;;;;;;;12.07;9.87;;;8.50;78.30;6.70;94818.00;;;;5039647;28;20283;-84
2023/12/01 09:52:51;;;;;;;12.03;9.73;;;8.50;78.30;6.70;94792.00;;;;5058829;28;20288;-85
2023/12/01 09:55:20;;;;;;;12.27;9.97;;;8.50;78.40;6.70;94782.00;;;;5063634;28;20299;-84
2023/12/01 09:57:48;;;;;;;10.77;8.83;;;8.50;78.40;6.70;94775.00;;;;5056257;28;20708;-83
2023/12/01 10:00:16;;;;;;;12.50;9.67;;;8.50;78.30;6.70;94770.00;;;;5055826;28;20192;-83
2023/12/01 10:02:43;;;;;;;12.17;10.00;;;8.50;78.20;6.70;94774.00;;;;5056916;28;20292;-84
2023/12/01 10:05:13;;;;;;;12.97;10.37;;;8.50;78.20;6.70;94771.00;;;;5062506;28;20213;-84
2023/12/01 10:07:41;;;;;;;14.47;11.43;;;8.50;78.20;6.70;94756.00;;;;5058155;28;20200;-83
2023/12/01 10:10:21;;;;;;;13.83;10.30;;;8.50;78.20;6.70;94773.00;;;;5056189;28;20379;-84
2023/12/01 10:12:58;;;;;;;12.37;10.20;;;8.50;77.80;6.70;94780.00;;;;5062494;28;20199;-84
2023/12/01 10:15:27;;;;;;;13.37;10.00;;;8.50;78.00;6.60;94774.00;;;;5052345;28;20828;-83
2023/12/01 10:17:55;;;;;;;13.73;11.00;;;8.50;78.20;6.70;94766.00;;;;5063009;28;20219;-85
2023/12/01 10:20:22;;;;;;;13.50;10.97;;;8.50;78.20;6.70;94763.00;;;;5055941;28;20197;-84
2023/12/01 10:22:50;;;;;;;12.23;9.90;;;8.50;78.20;6.70;94763.00;;;;5063176;28;20211;-84
2023/12/01 10:25:18;;;;;;;13.70;10.20;;;8.50;78.20;6.70;94762.00;;;;5053095;28;20223;-83
2023/12/01 10:27:55;;;;;;;14.37;10.67;;;8.50;78.30;6.70;94751.00;;;;5061256;28;20211;-84
2023/12/01 10:30:23;;;;;;;12.53;10.17;;;8.50;78.00;6.80;94762.00;;;;5058651;28;20203;-84
2023/12/01 10:32:50;;;;;;;13.40;10.27;;;8.50;78.40;6.80;94756.00;;;;5060155;28;20283;-84
2023/12/01 10:35:18;;;;;;;13.57;10.63;;;8.50;78.60;6.80;94755.00;;;;5053462;28;20694;-84
2023/12/01 10:37:47;;;;;;;13.20;10.63;;;8.50;78.50;6.90;94772.00;;;;5059820;28;20216;-84
2023/12/01 10:40:17;;;;;;;12.43;10.57;;;8.60;78.40;6.90;94762.00;;;;5059998;28;20738;-84
2023/12/01 10:42:49;;;;;;;14.50;10.87;;;8.60;78.20;6.90;94769.00;;;;5053263;28;20203;-84
2023/12/01 10:45:22;;;;;;;13.97;10.57;;;8.60;78.30;6.90;94771.00;;;;5052621;28;20643;-85
2023/12/01 10:47:53;;;;;;;14.17;10.90;;;8.60;78.20;6.90;94770.00;;;;5055758;28;20722;-85
2023/12/01 10:50:22;;;;;;;14.23;11.00;;;8.70;78.20;7.00;94769.00;;;;5056924;28;20220;-84
2023/12/01 10:52:59;;;;;;;13.90;11.20;;;8.60;78.20;6.90;94773.00;;;;5056357;28;20196;-84
2023/12/01 10:55:32;;;;;;;15.17;11.30;;;9.20;78.50;6.90;94763.00;;;;5060806;28;20216;-83
2023/12/01 10:58:22;;;;;;;;;;;;;;;;;;;;;
2023/12/01 11:00:53;;;;;;;13.37;11.00;;;8.60;78.00;6.90;94779.00;;;;5059082;28;20214;-83
2023/12/01 11:03:26;;;;;;;15.60;11.43;;;8.50;78.00;6.90;94766.00;;;;5060675;28;20288;-83
2023/12/01 11:05:59;;;;;;;15.67;12.00;;;8.60;78.20;6.90;94758.00;;;;5055439;28;20205;-81
2023/12/01 11:08:49;;;;;;;15.63;12.67;;;8.60;78.10;6.90;94727.00;;;;5061360;28;20336;-83
2023/12/01 11:11:31;;;;;;;16.00;11.53;;;8.60;77.70;6.90;94736.00;;;;5056516;28;20204;-83
2023/12/01 11:14:11;;;;;;;14.37;10.87;;;8.60;78.00;6.90;94734.00;;;;5056161;28;20227;-82